| time (UTC) | temp C | wind direction | speed KPH | gust KPH | rain 1hr cm | rain 24hr cm | rain mn cm | humidity % | barometer mb |
| 20260506211459 | 21 | 266 | 4.8 | 16.1 | 0.00 | 0.00 | 0.00 | 49 | 1016.9 |
| 20260506211000 | 20 | 267 | 6.4 | 19.3 | 0.00 | 0.00 | 0.00 | 49 | 1017.0 |
| 20260506205959 | 20 | 302 | 6.4 | 20.9 | 0.00 | 0.00 | 0.00 | 49 | 1017.0 |
| 20260506205459 | 20 | 293 | 6.4 | 17.7 | 0.00 | 0.00 | 0.00 | 49 | 1017.0 |
| 20260506204959 | 20 | 354 | 4.8 | 16.1 | 0.00 | 0.00 | 0.00 | 49 | 1017.0 |
| 20260506204501 | 20 | 213 | 6.4 | 20.9 | 0.00 | 0.00 | 0.00 | 49 | 1017.0 |
| 20260506203959 | 20 | 310 | 6.4 | 20.9 | 0.00 | 0.00 | 0.00 | 50 | 1017.0 |
| 20260506203500 | 20 | 292 | 6.4 | 20.9 | 0.00 | 0.00 | 0.00 | 48 | 1017.2 |
| 20260506202959 | 20 | 304 | 6.4 | 20.9 | 0.00 | 0.00 | 0.00 | 49 | 1017.2 |
| 20260506201959 | 20 | 318 | 6.4 | 17.7 | 0.00 | 0.00 | 0.00 | 49 | 1017.1 |
| 20260506201459 | 20 | 320 | 6.4 | 16.1 | 0.00 | 0.00 | 0.00 | 48 | 1017.1 |
| 20260506201000 | 20 | 321 | 6.4 | 17.7 | 0.00 | 0.00 | 0.00 | 48 | 1017.1 |
| 20260506200459 | 21 | 213 | 4.8 | 20.9 | 0.00 | 0.00 | 0.00 | 47 | 1017.0 |
| 20260506200003 | 21 | 270 | 6.4 | 20.9 | 0.00 | 0.00 | 0.00 | 47 | 1017.0 |
| 20260506195501 | 21 | 271 | 4.8 | 12.9 | 0.00 | 0.00 | 0.00 | 46 | 1017.0 |
| 20260506195001 | 21 | 302 | 4.8 | 14.5 | 0.00 | 0.00 | 0.00 | 47 | 1017.0 |
| 20260506194501 | 21 | 283 | 4.8 | 14.5 | 0.00 | 0.00 | 0.00 | 46 | 1017.0 |
| 20260506194002 | 21 | 250 | 4.8 | 16.1 | 0.00 | 0.00 | 0.00 | 46 | 1017.1 |
| 20260506193000 | 22 | 290 | 4.8 | 12.9 | 0.00 | 0.00 | 0.00 | 44 | 1017.0 |
| 20260506192501 | 22 | 214 | 4.8 | 16.1 | 0.00 | 0.00 | 0.00 | 45 | 1017.0 |
| 20260506192001 | 22 | 17 | 4.8 | 16.1 | 0.00 | 0.00 | 0.00 | 45 | 1017.0 |
| 20260506191501 | 22 | 180 | 4.8 | 14.5 | 0.00 | 0.00 | 0.00 | 45 | 1017.0 |
| 20260506191000 | 22 | 355 | 4.8 | 16.1 | 0.00 | 0.00 | 0.00 | 45 | 1017.0 |
| 20260506190501 | 21 | 248 | 4.8 | 16.1 | 0.00 | 0.00 | 0.00 | 46 | 1017.1 |
| 20260506190002 | 21 | 295 | 4.8 | 22.5 | 0.00 | 0.00 | 0.00 | 46 | 1017.1 |
| 20260506185501 | 21 | 342 | 4.8 | 22.5 | 0.00 | 0.00 | 0.00 | 46 | 1017.1 |
| 20260506185001 | 21 | 331 | 4.8 | 17.7 | 0.00 | 0.00 | 0.00 | 46 | 1017.1 |
| 20260506184501 | 21 | 212 | 4.8 | 17.7 | 0.00 | 0.00 | 0.00 | 46 | 1017.1 |
| 20260506184001 | 21 | 239 | 4.8 | 16.1 | 0.00 | 0.00 | 0.00 | 47 | 1017.1 |
| 20260506183500 | 21 | 305 | 4.8 | 12.9 | 0.00 | 0.00 | 0.00 | 46 | 1017.1 |
| 20260506182501 | 21 | 218 | 6.4 | 16.1 | 0.00 | 0.00 | 0.00 | 47 | 1017.3 |
| 20260506182001 | 21 | 193 | 6.4 | 16.1 | 0.00 | 0.00 | 0.00 | 46 | 1017.5 |
| 20260506181500 | 21 | 238 | 6.4 | 16.1 | 0.00 | 0.00 | 0.00 | 46 | 1017.4 |
| 20260506181001 | 21 | 244 | 4.8 | 16.1 | 0.00 | 0.00 | 0.00 | 46 | 1017.4 |
| 20260506180501 | 22 | 306 | 1.6 | 8.0 | 0.00 | 0.00 | 0.00 | 45 | 1017.5 |
| 20260506175459 | 22 | 233 | 1.6 | 6.4 | 0.00 | 0.00 | 0.00 | 42 | 1017.6 |
| 20260506174959 | 21 | 251 | 1.6 | 6.4 | 0.00 | 0.00 | 0.00 | 44 | 1017.7 |
| 20260506174459 | 21 | 122 | 1.6 | 8.0 | 0.00 | 0.00 | 0.00 | 44 | 1017.7 |
| 20260506174000 | 21 | 295 | 1.6 | 8.0 | 0.00 | 0.00 | 0.00 | 44 | 1017.8 |
| 20260506173459 | 21 | 255 | 1.6 | 8.0 | 0.00 | 0.00 | 0.00 | 45 | 1017.8 |
| 20260506172459 | 21 | 225 | 1.6 | 6.4 | 0.00 | 0.00 | 0.00 | 46 | 1017.8 |
| 20260506171959 | 21 | 224 | 1.6 | 6.4 | 0.00 | 0.00 | 0.00 | 47 | 1017.8 |
| 20260506171500 | 21 | 96 | 1.6 | 6.4 | 0.00 | 0.00 | 0.00 | 46 | 1017.8 |
| 20260506170959 | 20 | 269 | 3.2 | 8.0 | 0.00 | 0.00 | 0.00 | 47 | 1017.8 |
| 20260506170001 | 21 | 233 | 1.6 | 4.8 | 0.00 | 0.00 | 0.00 | 48 | 1017.8 |
| 20260506165501 | 21 | 299 | 1.6 | 8.0 | 0.00 | 0.00 | 0.00 | 47 | 1017.7 |
| 20260506165001 | 20 | 212 | 1.6 | 8.0 | 0.00 | 0.00 | 0.00 | 49 | 1017.7 |
| 20260506164501 | 20 | 354 | 0.0 | 4.8 | 0.00 | 0.00 | 0.00 | 50 | 1017.7 |
| 20260506164000 | 20 | 203 | 0.0 | 3.2 | 0.00 | 0.00 | 0.00 | 54 | 1017.7 |
| 20260506163501 | 19 | 136 | 0.0 | 3.2 | 0.00 | 0.00 | 0.00 | 56 | 1017.8 |
| 20260506163001 | 19 | 137 | 1.6 | 3.2 | 0.00 | 0.00 | 0.00 | 56 | 1017.7 |
| 20260506162500 | 18 | 109 | 0.0 | 3.2 | 0.00 | 0.00 | 0.00 | 57 | 1017.7 |
| 20260506162000 | 18 | 217 | 0.0 | 3.2 | 0.00 | 0.00 | 0.00 | 60 | 1017.8 |
| 20260506161501 | 17 | 132 | 1.6 | 4.8 | 0.00 | 0.00 | 0.00 | 63 | 1017.9 |
| 20260506161000 | 17 | 112 | 3.2 | 6.4 | 0.00 | 0.00 | 0.00 | 63 | 1017.9 |
| 20260506160500 | 17 | 105 | 3.2 | 6.4 | 0.00 | 0.00 | 0.00 | 62 | 1017.8 |
| 20260506155459 | 17 | 165 | 1.6 | 6.4 | 0.00 | 0.00 | 0.00 | 63 | 1017.9 |
| 20260506154500 | 16 | 146 | 1.6 | 6.4 | 0.00 | 0.00 | 0.00 | 67 | 1017.9 |
| 20260506153959 | 15 | 115 | 1.6 | 6.4 | 0.00 | 0.00 | 0.00 | 68 | 1018.0 |
| 20260506153459 | 15 | 110 | 0.0 | 3.2 | 0.00 | 0.00 | 0.00 | 68 | 1018.0 |
| 20260506152500 | 15 | 138 | 0.0 | 4.8 | 0.00 | 0.00 | 0.00 | 69 | 1018.1 |
| 20260506151959 | 15 | 214 | 0.0 | 3.2 | 0.00 | 0.00 | 0.00 | 71 | 1018.1 |
| 20260506151459 | 14 | 319 | 0.0 | 1.6 | 0.00 | 0.00 | 0.00 | 73 | 1018.1 |
| 20260506150959 | 13 | 121 | 0.0 | 1.6 | 0.00 | 0.00 | 0.00 | 75 | 1018.1 |
| 20260506150459 | 13 | 120 | 0.0 | 1.6 | 0.00 | 0.00 | 0.00 | 76 | 1018.1 |
| 20260506150002 | 12 | 248 | 0.0 | 1.6 | 0.00 | 0.00 | 0.00 | 77 | 1018.2 |
| 20260506145501 | 12 | 213 | 0.0 | 4.8 | 0.00 | 0.00 | 0.00 | 79 | 1018.1 |
| 20260506145000 | 12 | 117 | 0.0 | 4.8 | 0.00 | 0.00 | 0.00 | 80 | 1018.2 |
| 20260506144501 | 12 | 259 | 0.0 | 1.6 | 0.00 | 0.00 | 0.00 | 84 | 1018.1 |
| 20260506144000 | 11 | 124 | 0.0 | 1.6 | 0.00 | 0.00 | 0.00 | 85 | 1018.1 |
| 20260506143500 | 11 | 34 | 0.0 | 1.6 | 0.00 | 0.00 | 0.00 | 85 | 1018.0 |
| 20260506142501 | 10 | 120 | 0.0 | 1.6 | 0.00 | 0.00 | 0.00 | 84 | 1018.0 |
| 20260506142001 | 10 | 117 | 0.0 | 1.6 | 0.00 | 0.00 | 0.00 | 84 | 1018.0 |
| 20260506141500 | 9 | 117 | 0.0 | 1.6 | 0.00 | 0.00 | 0.00 | 84 | 1017.9 |
| 20260506141001 | 9 | 112 | 0.0 | 1.6 | 0.00 | 0.00 | 0.00 | 84 | 1017.8 |
| 20260506140501 | 9 | 112 | 0.0 | 1.6 | 0.00 | 0.00 | 0.00 | 84 | 1017.8 |
| 20260506140001 | 9 | 224 | 0.0 | 1.6 | 0.00 | 0.00 | 0.00 | 84 | 1017.6 |
| 20260506135500 | 9 | 159 | 0.0 | 0.0 | 0.00 | 0.00 | 0.00 | 84 | 1017.5 |
| 20260506135000 | 9 | 160 | 0.0 | 1.6 | 0.00 | 0.00 | 0.00 | 84 | 1017.5 |
| 20260506134500 | 9 | 118 | 0.0 | 1.6 | 0.00 | 0.00 | 0.00 | 84 | 1017.5 |
| 20260506134000 | 9 | 68 | 0.0 | 0.0 | 0.00 | 0.00 | 0.00 | 84 | 1017.6 |
| 20260506133459 | 9 | 6 | 0.0 | 1.6 | 0.00 | 0.00 | 0.00 | 83 | 1017.6 |
| 20260506133000 | 9 | 358 | 0.0 | 3.2 | 0.00 | 0.00 | 0.00 | 83 | 1017.5 |
| 20260506132500 | 9 | 124 | 1.6 | 3.2 | 0.00 | 0.00 | 0.00 | 84 | 1017.3 |
| 20260506131959 | 9 | 109 | 0.0 | 3.2 | 0.00 | 0.00 | 0.00 | 84 | 1017.2 |
| 20260506130959 | 8 | 339 | 0.0 | 0.0 | 0.00 | 0.00 | 0.00 | 83 | 1017.3 |
| 20260506130459 | 8 | 338 | 0.0 | 1.6 | 0.00 | 0.00 | 0.00 | 83 | 1017.1 |
| 20260506130002 | 8 | 339 | 0.0 | 1.6 | 0.00 | 0.00 | 0.00 | 83 | 1017.2 |
| 20260506125501 | 8 | 264 | 0.0 | 1.6 | 0.00 | 0.00 | 0.00 | 83 | 1017.1 |
| 20260506125002 | 8 | 268 | 0.0 | 1.6 | 0.00 | 0.00 | 0.00 | 83 | 1017.0 |
| 20260506124500 | 8 | 218 | 0.0 | 0.0 | 0.00 | 0.00 | 0.00 | 83 | 1017.0 |
| 20260506124001 | 8 | 218 | 0.0 | 0.0 | 0.00 | 0.00 | 0.00 | 83 | 1016.9 |
| 20260506123001 | 9 | 218 | 0.0 | 0.0 | 0.00 | 0.00 | 0.00 | 83 | 1017.0 |
| 20260506122000 | 9 | 146 | 0.0 | 0.0 | 0.00 | 0.00 | 0.00 | 83 | 1016.8 |
| 20260506121501 | 9 | 146 | 0.0 | 0.0 | 0.00 | 0.00 | 0.00 | 82 | 1016.9 |
| 20260506121000 | 9 | 146 | 0.0 | 0.0 | 0.00 | 0.00 | 0.00 | 82 | 1016.9 |
| 20260506120502 | 9 | 146 | 0.0 | 0.0 | 0.00 | 0.00 | 0.00 | 82 | 1016.9 |
| 20260506115459 | 9 | 146 | 0.0 | 0.0 | 0.00 | 0.00 | 0.00 | 81 | 1017.0 |
| 20260506115000 | 9 | 147 | 0.0 | 0.0 | 0.00 | 0.00 | 0.00 | 81 | 1017.0 |
| 20260506114459 | 9 | 140 | 0.0 | 0.0 | 0.00 | 0.00 | 0.00 | 81 | 1017.0 |
| 20260506114000 | 9 | 140 | 0.0 | 0.0 | 0.00 | 0.00 | 0.00 | 81 | 1017.1 |
| 20260506113459 | 9 | 141 | 0.0 | 0.0 | 0.00 | 0.00 | 0.00 | 81 | 1017.1 |
| 20260506112959 | 9 | 124 | 0.0 | 0.0 | 0.00 | 0.00 | 0.00 | 81 | 1017.1 |
| 20260506111959 | 9 | 126 | 0.0 | 0.0 | 0.00 | 0.00 | 0.00 | 80 | 1017.2 |
| 20260506111002 | 9 | 126 | 0.0 | 0.0 | 0.00 | 0.00 | 0.00 | 81 | 1017.1 |
| 20260506110459 | 9 | 165 | 0.0 | 0.0 | 0.00 | 0.00 | 0.00 | 79 | 1017.2 |
| 20260506105500 | 9 | 165 | 0.0 | 0.0 | 0.00 | 0.00 | 0.00 | 78 | 1017.1 |
| 20260506103959 | 9 | 109 | 0.0 | 1.6 | 0.00 | 0.00 | 0.00 | 78 | 1017.1 |
| 20260506102959 | 10 | 136 | 0.0 | 1.6 | 0.00 | 0.00 | 0.00 | 78 | 1017.1 |
| 20260506102500 | 10 | 41 | 0.0 | 1.6 | 0.00 | 0.00 | 0.00 | 77 | 1017.1 |
| 20260506102000 | 10 | 40 | 0.0 | 1.6 | 0.00 | 0.00 | 0.00 | 77 | 1017.1 |
| 20260506101459 | 10 | 345 | 0.0 | 0.0 | 0.00 | 0.00 | 0.00 | 76 | 1017.1 |
| 20260506100959 | 10 | 345 | 0.0 | 1.6 | 0.00 | 0.00 | 0.00 | 76 | 1017.1 |
| 20260506100459 | 10 | 345 | 0.0 | 1.6 | 0.00 | 0.00 | 0.00 | 76 | 1017.1 |
| 20260506095500 | 10 | 1 | 0.0 | 1.6 | 0.00 | 0.00 | 0.00 | 75 | 1017.0 |
| 20260506094959 | 10 | 1 | 0.0 | 1.6 | 0.00 | 0.00 | 0.00 | 75 | 1017.1 |
| 20260506094459 | 10 | 110 | 0.0 | 0.0 | 0.00 | 0.00 | 0.00 | 74 | 1017.0 |
| 20260506094000 | 10 | 110 | 0.0 | 0.0 | 0.00 | 0.00 | 0.00 | 74 | 1017.0 |
| 20260506092959 | 10 | 110 | 0.0 | 1.6 | 0.00 | 0.00 | 0.00 | 74 | 1017.0 |
| 20260506092459 | 10 | 110 | 0.0 | 1.6 | 0.00 | 0.00 | 0.00 | 74 | 1017.0 |
| 20260506092000 | 10 | 110 | 0.0 | 1.6 | 0.00 | 0.00 | 0.00 | 74 | 1017.1 |
| 20260506091459 | 10 | 110 | 0.0 | 1.6 | 0.00 | 0.00 | 0.00 | 74 | 1017.2 |
| 20260506091000 | 10 | 116 | 0.0 | 1.6 | 0.00 | 0.00 | 0.00 | 74 | 1017.2 |
| 20260506090500 | 10 | 165 | 0.0 | 0.0 | 0.00 | 0.00 | 0.00 | 73 | 1017.3 |
| 20260506090001 | 10 | 165 | 0.0 | 0.0 | 0.00 | 0.00 | 0.00 | 73 | 1017.2 |
| 20260506085500 | 10 | 159 | 0.0 | 1.6 | 0.00 | 0.00 | 0.00 | 73 | 1017.3 |
| 20260506085000 | 10 | 158 | 0.0 | 1.6 | 0.00 | 0.00 | 0.00 | 73 | 1017.4 |
| 20260506084458 | 11 | 294 | 0.0 | 1.6 | 0.00 | 0.00 | 0.00 | 72 | 1017.3 |
| 20260506084000 | 11 | 245 | 0.0 | 1.6 | 0.00 | 0.00 | 0.00 | 73 | 1017.3 |
| 20260506082959 | 11 | 206 | 0.0 | 1.6 | 0.00 | 0.00 | 0.00 | 72 | 1017.4 |
| 20260506082459 | 11 | 243 | 0.0 | 1.6 | 0.00 | 0.00 | 0.00 | 72 | 1017.4 |
| 20260506082001 | 11 | 313 | 0.0 | 1.6 | 0.00 | 0.00 | 0.00 | 71 | 1017.5 |
| 20260506081458 | 11 | 269 | 0.0 | 1.6 | 0.00 | 0.00 | 0.00 | 71 | 1017.5 |
| 20260506081000 | 11 | 265 | 0.0 | 3.2 | 0.00 | 0.00 | 0.00 | 71 | 1017.5 |
| 20260506073500 | 11 | 36 | 0.0 | 4.8 | 0.00 | 0.00 | 0.00 | 70 | 1017.5 |
| 20260506073000 | 12 | 30 | 0.0 | 4.8 | 0.00 | 0.00 | 0.00 | 70 | 1017.4 |
| 20260506072500 | 12 | 309 | 0.0 | 3.2 | 0.00 | 0.00 | 0.00 | 70 | 1017.4 |
| 20260506072001 | 12 | 340 | 0.0 | 3.2 | 0.00 | 0.00 | 0.00 | 70 | 1017.3 |
| 20260506071500 | 12 | 264 | 0.0 | 3.2 | 0.00 | 0.00 | 0.00 | 70 | 1017.4 |
| 20260506071000 | 12 | 274 | 1.6 | 3.2 | 0.00 | 0.00 | 0.00 | 70 | 1017.2 |
| 20260506070500 | 12 | 348 | 1.6 | 8.0 | 0.00 | 0.00 | 0.00 | 70 | 1017.2 |
| 20260506062500 | 12 | 315 | 0.0 | 6.4 | 0.00 | 0.00 | 0.00 | 69 | 1016.9 |
| 20260506062001 | 12 | 250 | 0.0 | 6.4 | 0.00 | 0.00 | 0.00 | 69 | 1017.0 |
| 20260506061500 | 12 | 326 | 1.6 | 9.7 | 0.00 | 0.00 | 0.00 | 69 | 1017.0 |
| 20260506051000 | 12 | 246 | 0.0 | 3.2 | 0.00 | 0.00 | 0.00 | 68 | 1016.8 |
| 20260506050500 | 12 | 319 | 0.0 | 4.8 | 0.00 | 0.00 | 0.00 | 68 | 1016.7 |
| 20260506045002 | 13 | 356 | 0.0 | 4.8 | 0.00 | 0.00 | 0.00 | 68 | 1016.6 |
| 20260506044501 | 13 | 353 | 0.0 | 1.6 | 0.00 | 0.00 | 0.00 | 68 | 1016.5 |
| 20260506044000 | 13 | 309 | 0.0 | 3.2 | 0.00 | 0.00 | 0.00 | 68 | 1016.4 |
| 20260506043500 | 13 | 310 | 0.0 | 6.4 | 0.00 | 0.00 | 0.00 | 68 | 1016.4 |
| 20260506043002 | 13 | 1 | 0.0 | 6.4 | 0.00 | 0.00 | 0.00 | 68 | 1016.3 |
| 20260506042500 | 13 | 86 | 0.0 | 1.6 | 0.00 | 0.00 | 0.00 | 68 | 1016.3 |
| 20260506042001 | 13 | 302 | 0.0 | 1.6 | 0.00 | 0.00 | 0.00 | 68 | 1016.3 |
| 20260506041459 | 13 | 315 | 1.6 | 3.2 | 0.00 | 0.00 | 0.00 | 68 | 1016.1 |
| 20260506041001 | 13 | 347 | 1.6 | 6.4 | 0.00 | 0.00 | 0.00 | 68 | 1016.0 |
| 20260506040500 | 13 | 1 | 1.6 | 8.0 | 0.00 | 0.00 | 0.00 | 68 | 1016.0 |
| 20260506040002 | 13 | 327 | 0.0 | 8.0 | 0.00 | 0.00 | 0.00 | 67 | 1015.9 |
| 20260506035501 | 13 | 317 | 0.0 | 6.4 | 0.00 | 0.00 | 0.00 | 68 | 1015.8 |
| 20260506035001 | 13 | 290 | 1.6 | 9.7 | 0.00 | 0.00 | 0.00 | 68 | 1015.8 |
| 20260506034500 | 13 | 349 | 1.6 | 9.7 | 0.00 | 0.00 | 0.00 | 68 | 1015.7 |
| 20260506033500 | 13 | 303 | 1.6 | 8.0 | 0.00 | 0.00 | 0.00 | 68 | 1015.7 |
| 20260506032500 | 13 | 317 | 1.6 | 8.0 | 0.00 | 0.00 | 0.00 | 68 | 1015.5 |
| 20260506032001 | 13 | 308 | 3.2 | 9.7 | 0.00 | 0.00 | 0.00 | 68 | 1015.4 |
| 20260506030959 | 13 | 4 | 1.6 | 9.7 | 0.00 | 0.00 | 0.00 | 67 | 1015.3 |
| 20260506030502 | 13 | 340 | 1.6 | 8.0 | 0.00 | 0.00 | 0.00 | 67 | 1015.3 |
| 20260506030002 | 13 | 46 | 1.6 | 9.7 | 0.00 | 0.00 | 0.00 | 67 | 1015.2 |
| 20260506025501 | 13 | 347 | 3.2 | 9.7 | 0.00 | 0.00 | 0.00 | 67 | 1015.0 |
| 20260506025001 | 13 | 16 | 3.2 | 11.3 | 0.00 | 0.00 | 0.00 | 67 | 1014.9 |
| 20260506023501 | 13 | 134 | 1.6 | 11.3 | 0.00 | 0.00 | 0.00 | 66 | 1014.9 |
| 20260506022502 | 13 | 300 | 3.2 | 11.3 | 0.00 | 0.00 | 0.00 | 65 | 1014.7 |
| 20260506022001 | 13 | 338 | 3.2 | 9.7 | 0.00 | 0.00 | 0.00 | 65 | 1014.7 |
| 20260506021001 | 14 | 356 | 3.2 | 20.9 | 0.00 | 0.00 | 0.00 | 64 | 1014.6 |
| 20260506020002 | 14 | 360 | 4.8 | 14.5 | 0.00 | 0.00 | 0.00 | 63 | 1014.5 |
| 20260506015501 | 14 | 316 | 4.8 | 14.5 | 0.00 | 0.00 | 0.00 | 63 | 1014.5 |
| 20260506014501 | 14 | 289 | 4.8 | 12.9 | 0.00 | 0.00 | 0.00 | 63 | 1014.5 |
| 20260506014001 | 14 | 315 | 4.8 | 11.3 | 0.00 | 0.00 | 0.00 | 62 | 1014.5 |
| 20260506013501 | 14 | 342 | 3.2 | 14.5 | 0.00 | 0.00 | 0.00 | 61 | 1014.4 |
| 20260506013000 | 14 | 292 | 4.8 | 14.5 | 0.00 | 0.00 | 0.00 | 60 | 1014.5 |
| 20260506012001 | 15 | 280 | 4.8 | 11.3 | 0.00 | 0.00 | 0.00 | 58 | 1014.4 |
| 20260506011001 | 15 | 314 | 4.8 | 14.5 | 0.00 | 0.00 | 0.00 | 57 | 1014.4 |
| 20260506010500 | 15 | 231 | 4.8 | 14.5 | 0.00 | 0.00 | 0.00 | 56 | 1014.4 |
| 20260506004959 | 15 | 338 | 4.8 | 17.7 | 0.00 | 0.00 | 0.00 | 55 | 1014.4 |
| 20260506004458 | 15 | 236 | 4.8 | 17.7 | 0.00 | 0.00 | 0.00 | 55 | 1014.5 |
| 20260506003958 | 16 | 230 | 4.8 | 11.3 | 0.00 | 0.00 | 0.00 | 55 | 1014.4 |
| 20260506003459 | 15 | 333 | 6.4 | 14.5 | 0.00 | 0.00 | 0.00 | 54 | 1014.5 |
| 20260506002959 | 15 | 357 | 6.4 | 14.5 | 0.00 | 0.00 | 0.00 | 54 | 1014.4 |
| 20260506002459 | 16 | 127 | 6.4 | 17.7 | 0.00 | 0.00 | 0.00 | 54 | 1014.4 |
| 20260506002000 | 16 | 333 | 6.4 | 17.7 | 0.00 | 0.00 | 0.00 | 53 | 1014.4 |
| 20260506001459 | 16 | 248 | 6.4 | 17.7 | 0.00 | 0.00 | 0.00 | 52 | 1014.3 |
| 20260506000959 | 16 | 3 | 4.8 | 14.5 | 0.00 | 0.00 | 0.00 | 53 | 1014.3 |
| 20260505235959 | 16 | 297 | 4.8 | 17.7 | 0.00 | 0.00 | 0.00 | 52 | 1014.3 |
| 20260505235500 | 16 | 248 | 4.8 | 17.7 | 0.00 | 0.00 | 0.00 | 52 | 1014.2 |
| 20260505234959 | 16 | 115 | 6.4 | 14.5 | 0.00 | 0.00 | 0.00 | 53 | 1014.3 |
| 20260505234459 | 17 | 110 | 4.8 | 17.7 | 0.00 | 0.00 | 0.00 | 53 | 1014.3 |
| 20260505233959 | 17 | 287 | 4.8 | 16.1 | 0.00 | 0.00 | 0.00 | 55 | 1014.4 |
| 20260505233458 | 17 | 345 | 6.4 | 16.1 | 0.00 | 0.00 | 0.00 | 53 | 1014.4 |
| 20260505232959 | 17 | 308 | 4.8 | 14.5 | 0.00 | 0.00 | 0.00 | 52 | 1014.3 |
| 20260505232459 | 17 | 340 | 6.4 | 17.7 | 0.00 | 0.00 | 0.00 | 51 | 1014.3 |
| 20260505231459 | 17 | 307 | 6.4 | 17.7 | 0.00 | 0.00 | 0.00 | 51 | 1014.3 |
| 20260505230959 | 17 | 252 | 4.8 | 16.1 | 0.00 | 0.00 | 0.00 | 51 | 1014.3 |
| 20260505230459 | 17 | 290 | 6.4 | 17.7 | 0.00 | 0.00 | 0.00 | 51 | 1014.3 |
| 20260505230000 | 17 | 288 | 6.4 | 22.5 | 0.00 | 0.00 | 0.00 | 50 | 1014.4 |
| 20260505225500 | 18 | 331 | 6.4 | 22.5 | 0.00 | 0.00 | 0.00 | 50 | 1014.3 |
| 20260505224959 | 18 | 285 | 4.8 | 14.5 | 0.00 | 0.00 | 0.00 | 49 | 1014.5 |
| 20260505224459 | 18 | 345 | 4.8 | 17.7 | 0.00 | 0.00 | 0.00 | 49 | 1014.3 |
| 20260505223959 | 18 | 21 | 4.8 | 17.7 | 0.00 | 0.00 | 0.00 | 50 | 1014.3 |
| 20260505223459 | 18 | 321 | 4.8 | 12.9 | 0.00 | 0.00 | 0.00 | 48 | 1014.3 |
| 20260505223000 | 18 | 236 | 4.8 | 14.5 | 0.00 | 0.00 | 0.00 | 49 | 1014.3 |
| 20260505221959 | 18 | 300 | 6.4 | 17.7 | 0.00 | 0.00 | 0.00 | 49 | 1014.4 |
| 20260505221500 | 18 | 311 | 6.4 | 14.5 | 0.00 | 0.00 | 0.00 | 49 | 1014.4 |
| 20260505220959 | 18 | 202 | 4.8 | 14.5 | 0.00 | 0.00 | 0.00 | 49 | 1014.4 |
| 20260505220500 | 17 | 293 | 4.8 | 16.1 | 0.00 | 0.00 | 0.00 | 50 | 1014.5 |
| 20260505215959 | 17 | 274 | 4.8 | 16.1 | 0.00 | 0.00 | 0.00 | 49 | 1014.7 |
| 20260505215459 | 17 | 272 | 4.8 | 12.9 | 0.00 | 0.00 | 0.00 | 50 | 1014.6 |
| 20260505214959 | 17 | 227 | 4.8 | 14.5 | 0.00 | 0.00 | 0.00 | 51 | 1014.8 |
| 20260505214459 | 17 | 77 | 4.8 | 11.3 | 0.00 | 0.00 | 0.00 | 51 | 1014.9 |
| 20260505213959 | 17 | 314 | 4.8 | 12.9 | 0.00 | 0.00 | 0.00 | 52 | 1014.9 |
| 20260505213459 | 17 | 319 | 4.8 | 12.9 | 0.00 | 0.00 | 0.00 | 50 | 1015.1 |
| 20260505212959 | 17 | 325 | 4.8 | 16.1 | 0.00 | 0.00 | 0.00 | 51 | 1015.0 |
| 20260505211959 | 17 | 318 | 4.8 | 17.7 | 0.00 | 0.00 | 0.00 | 49 | 1015.0 |